Latest Weather Observations for Canberra

IDN60901

Issued at 3:15 pm EST Friday 25 July 2014 (issued every 10 minutes, with the page automatically refreshed every 10 minutes)

About weather observations | Map of Canberra area stations | Latest observations for Canberra area | Other Formats
Station Details ID: 070351 Name: CANBERRA AIRPORT Lat: -35.31 Lon: 149.20 Height: 577.05 m
Data from the previous 72 hours. | See also: Recent months at Canberra
Date/Time
EST
Tmp

°C
App
Tmp
°C
Dew
Point
°C
Rel
Hum
%
Delta-T

°C
Wind Press
QNH
hPa
Press
MSL
hPa
Rain
since
9 am
mm
Dir
 
Spd
km/h
Gust
km/h
Spd
kts
Gust
kts
25/03:00pm 15.3 9.3 7.1 58 4.2 NNW 28 35 15 19 1019.5 1020.8 0.0
25/02:30pm 15.1 8.4 7.4 60 3.9 N 32 37 17 20 1019.6 - 0.0
25/02:00pm 15.5 10.2 6.8 56 4.4 NNW 24 33 13 18 1019.5 - 0.0
25/01:30pm 15.2 9.2 7.2 59 4.1 NNW 28 35 15 19 1019.6 - 0.0
25/01:00pm 15.0 9.6 7.8 62 3.7 NNW 26 32 14 17 1019.8 - 0.0
25/12:30pm 14.2 8.0 7.7 65 3.3 NW 30 37 16 20 1020.0 - 0.0
25/12:00pm 13.9 7.1 7.7 66 3.1 NW 33 41 18 22 1020.8 1022.2 0.0
25/11:30am 13.7 8.0 8.3 70 2.8 NNW 28 37 15 20 1021.2 - 0.0
25/11:00am 13.3 7.2 8.2 71 2.6 NNW 30 37 16 20 1021.3 - 0.0
25/10:46am 13.1 7.4 8.2 72 2.5 NNW 28 35 15 19 1021.4 - 0.0
25/10:30am 10.9 10.4 8.0 82 1.5 CALM 0 4 0 2 1021.4 - 0.0
25/10:00am 8.8 7.4 7.4 91 0.7 SSW 4 9 2 5 1021.5 - 0.0
25/09:30am 6.3 3.7 6.2 99 0.0 SSW 9 11 5 6 1021.4 - 0.0
25/09:00am 3.9 2.5 3.8 99 0.0 CALM 0 6 0 3 1021.4 1022.7 0.4
25/08:30am 2.1 0.4 2.0 99 0.0 CALM 0 0 0 0 1021.3 - 0.4
25/08:21am 0.9 -1.0 0.8 99 0.0 CALM 0 0 0 0 1021.1 - 0.4
25/08:00am 0.0 -2.0 -0.1 99 0.0 CALM 0 - 0 - 1020.7 - 0.2
25/07:30am -0.5 -2.6 -0.6 99 0.0 CALM 0 0 0 0 1020.4 - 0.2
25/07:00am -0.6 -2.7 -0.7 99 0.0 CALM 0 - 0 - 1020.0 - 0.2
25/06:30am -0.3 -3.1 -0.4 99 0.0 NNE 4 7 2 4 1019.8 - 0.2
25/06:17am -0.5 -2.6 -0.6 99 0.0 CALM 0 - 0 - 1019.8 - 0.2
25/06:00am -0.4 -2.5 -0.5 99 0.0 N 0 0 0 0 1019.6 1020.9 0.2
25/05:46am -0.6 -2.7 -0.7 99 0.0 CALM 0 - 0 - 1019.5 - 0.2
25/05:30am -0.9 -3.0 -1.0 99 0.0 CALM 0 - 0 - 1019.5 - 0.2
25/05:00am -0.8 -3.7 -0.9 99 0.0 N 4 7 2 4 1019.0 - 0.2
25/04:30am 0.2 -2.1 0.1 99 0.0 SW 2 7 1 4 1019.1 - 0.2
25/04:04am 0.3 -2.8 0.2 99 0.0 SSW 6 7 3 4 1019.0 - 0.2
25/04:00am 0.2 -2.9 0.1 99 0.0 SSW 6 7 3 4 1019.0 - 0.2
25/03:30am -0.3 -2.3 -0.4 99 0.0 CALM 0 0 0 0 1019.0 - 0.2
25/03:09am 0.0 -2.0 -0.1 99 0.0 CALM 0 0 0 0 1019.3 - 0.2
25/03:04am 0.0 -2.0 -0.1 99 0.0 CALM 0 0 0 0 1019.3 - 0.2
25/03:00am 1.3 -0.5 1.2 99 0.0 CALM 0 0 0 0 1019.3 1020.6 0.2
25/02:51am 1.3 -0.5 1.2 99 0.0 CALM 0 0 0 0 1019.3 - 0.2
25/02:32am 1.5 -0.3 1.4 99 0.0 CALM 0 0 0 0 1019.3 - 0.2
25/02:30am 1.5 -0.3 1.4 99 0.0 CALM 0 0 0 0 1019.3 - 0.2
25/02:01am 0.8 -1.1 0.7 99 0.0 CALM 0 0 0 0 1019.3 - 0.2
25/02:00am 0.8 -1.1 0.7 99 0.0 CALM 0 0 0 0 1019.3 - 0.2
25/01:59am 0.8 -1.1 0.7 99 0.0 CALM 0 0 0 0 1019.3 - 0.2
25/01:48am 0.5 -1.4 0.4 99 0.0 E 0 0 0 0 1019.3 - 0.2
25/01:30am 2.6 -0.1 2.5 99 0.0 E 6 7 3 4 1019.3 - 0.2
25/01:28am 2.2 -0.6 2.1 99 0.0 E 6 7 3 4 1019.3 - 0.2
25/01:00am 2.8 -0.1 2.7 99 0.0 E 7 7 4 4 1019.4 - 0.2
25/12:30am 1.1 -0.8 0.4 95 0.3 CALM 0 0 0 0 1019.4 - 0.2
25/12:27am 0.9 -1.1 0.0 94 0.3 N 0 0 0 0 1019.4 - 0.2
25/12:22am 1.7 -0.1 1.0 95 0.3 CALM 0 0 0 0 1019.4 - 0.2
25/12:00am 4.1 2.8 4.0 99 0.0 N 0 0 0 0 1019.6 1020.9 0.2
 
Date/Time
EST
Tmp

°C
App
Tmp
°C
Dew
Point
°C
Rel
Hum
%
Delta-T

°C
Wind Press
QNH
hPa
Press
MSL
hPa
Rain
since
9 am
mm
Dir
 
Spd
km/h
Gust
km/h
Spd
kts
Gust
kts
24/11:37pm 5.1 4.0 5.0 99 0.0 CALM 0 0 0 0 1019.8 - 0.2
24/11:30pm 5.3 4.2 5.2 99 0.0 CALM 0 0 0 0 1019.8 - 0.2
24/11:00pm 5.6 4.2 5.5 99 0.0 NW 2 6 1 3 1020.0 - 0.2
24/10:30pm 5.9 4.9 5.8 99 0.0 CALM 0 7 0 4 1020.1 - 0.2
24/10:00pm 5.1 2.3 5.0 99 0.0 ESE 9 11 5 6 1020.1 - 0.2
24/09:30pm 4.8 2.3 4.7 99 0.0 S 7 9 4 5 1020.4 - 0.2
24/09:00pm 4.4 1.8 4.1 98 0.1 N 7 9 4 5 1020.1 1021.4 0.2
24/08:30pm 4.8 2.5 4.7 99 0.0 ESE 6 7 3 4 1019.7 - 0.2
24/08:00pm 4.6 1.5 3.7 94 0.4 NW 9 9 5 5 1019.6 - 0.2
24/07:30pm 6.0 3.6 5.3 95 0.3 E 7 11 4 6 1019.3 - 0.2
24/07:00pm 6.1 4.9 4.6 90 0.7 CALM 0 0 0 0 1019.3 - 0.2
24/06:30pm 7.3 6.0 5.8 90 0.7 ENE 2 6 1 3 1018.8 - 0.2
24/06:00pm 7.9 6.5 5.7 86 1.0 ENE 2 7 1 4 1018.6 1019.9 0.2
24/05:30pm 8.7 7.8 6.0 83 1.3 CALM 0 0 0 0 1018.4 - 0.2
24/05:00pm 9.2 8.2 5.4 77 1.8 CALM 0 0 0 0 1018.4 - 0.2
24/04:30pm 10.0 8.3 5.8 75 2.0 SE 4 6 2 3 1018.3 - 0.2
24/04:00pm 10.5 8.1 5.3 70 2.5 SW 7 9 4 5 1018.3 - 0.2
24/03:30pm 10.5 8.1 5.1 69 2.5 WSW 7 9 4 5 1018.0 - 0.2
24/03:00pm 10.6 7.9 5.4 70 2.5 WSW 9 11 5 6 1018.1 1019.4 0.2
24/02:30pm 10.9 8.3 5.9 71 2.4 SW 9 11 5 6 1018.0 - 0.2
24/02:00pm 10.9 8.3 6.1 72 2.3 SSW 9 11 5 6 1018.0 - 0.2
24/01:30pm 9.4 6.4 5.8 78 1.7 S 11 13 6 7 1018.7 - 0.2
24/01:00pm 8.7 6.1 6.2 84 1.2 S 9 11 5 6 1019.4 - 0.2
24/12:30pm 8.4 5.2 6.7 89 0.8 S 13 17 7 9 1019.8 - 0.2
24/12:00pm 7.5 6.3 4.8 83 1.2 CALM 0 0 0 0 1021.1 1022.4 0.0
24/11:30am 6.8 3.2 4.8 87 0.9 WNW 13 19 7 10 1021.4 - 0.0
24/11:00am 6.5 4.9 4.7 88 0.8 WNW 2 7 1 4 1021.1 - 0.0
24/10:30am 6.0 4.4 4.6 91 0.6 NW 2 7 1 4 1021.4 - 0.0
24/10:00am 5.3 3.7 4.6 95 0.3 W 2 7 1 4 1021.8 - 0.0
24/09:30am 3.8 2.4 3.7 99 0.0 CALM 0 0 0 0 1021.7 - 0.0
24/09:00am 2.7 -0.2 2.6 99 0.0 ENE 7 9 4 5 1021.9 1023.3 0.0
24/08:30am 1.9 -0.9 1.8 99 0.0 NE 6 7 3 4 1021.8 - 0.0
24/08:00am 0.4 -2.9 0.3 99 0.0 S 7 9 4 5 1021.3 - 0.0
24/07:30am 0.0 -3.7 -0.1 99 0.0 SSW 9 11 5 6 1020.9 - 0.0
24/07:14am -0.2 -3.0 -0.3 99 0.0 SSE 4 9 2 5 1020.8 - 0.0
24/07:00am 0.6 -1.3 0.5 99 0.0 CALM 0 - 0 - 1020.9 - 0.0
24/06:30am 1.2 -1.8 1.1 99 0.0 N 6 7 3 4 1021.1 - 0.0
24/06:00am 1.4 -2.1 1.3 99 0.0 N 9 9 5 5 1020.9 1022.3 0.0
24/05:30am 0.8 -2.4 0.7 99 0.0 N 7 9 4 5 1020.9 - 0.0
24/05:24am 0.7 -2.5 0.6 99 0.0 NNE 7 9 4 5 1020.8 - 0.0
24/05:00am 0.6 -3.0 0.5 99 0.0 NNE 9 9 5 5 1020.8 - 0.0
24/04:47am 0.1 -4.0 0.0 99 0.0 NNW 11 13 6 7 1020.8 - 0.0
24/04:30am -0.9 -3.0 -1.0 99 0.0 CALM 0 6 0 3 1020.6 - 0.0
24/04:01am -1.4 -4.9 -1.5 99 0.0 N 7 7 4 4 1020.6 - 0.0
24/04:00am -1.4 -4.9 -1.5 99 0.0 N 7 7 4 4 1020.6 - 0.0
24/03:43am -1.6 -5.0 -1.9 98 0.0 NW 6 9 3 5 1020.6 - 0.0
24/03:30am -0.2 -2.2 -0.3 99 0.0 CALM 0 0 0 0 1020.5 - 0.0
24/03:11am -0.5 -2.6 -0.6 99 0.0 CALM 0 0 0 0 1020.5 - 0.0
24/03:00am -0.5 -3.7 -0.6 99 0.0 NNW 6 9 3 5 1020.5 1021.9 0.0
24/02:30am -1.7 -5.1 -2.0 98 0.0 W 6 7 3 4 1020.5 - 0.0
24/02:23am -1.7 -5.1 -2.0 98 0.0 W 6 7 3 4 1020.5 - 0.0
24/02:09am -1.1 -4.4 -1.2 99 0.0 SE 6 7 3 4 1020.6 - 0.0
24/02:00am -1.3 -3.9 -1.4 99 0.0 SSE 2 7 1 4 1020.7 - 0.0
24/01:32am -1.1 -3.7 -1.7 96 0.2 NE 2 6 1 3 1020.9 - 0.0
24/01:30am -1.3 -3.9 -1.9 96 0.2 NNE 2 7 1 4 1020.9 - 0.0
24/01:27am -1.7 -5.2 -2.5 94 0.2 N 6 7 3 4 1021.1 - 0.0
24/01:00am -0.3 -2.4 -0.9 96 0.2 CALM 0 6 0 3 1021.2 - 0.0
24/12:30am 0.0 -2.4 -0.3 98 0.1 NNE 2 7 1 4 1021.4 - 0.0
24/12:24am 0.7 -1.2 0.6 99 0.0 CALM 0 0 0 0 1021.4 - 0.0
24/12:03am -0.5 -3.4 -1.1 96 0.2 N 4 7 2 4 1021.8 - 0.0
24/12:00am -0.3 -3.1 -0.7 97 0.1 NNW 4 7 2 4 1021.8 1023.2 0.0
 
Date/Time
EST
Tmp

°C
App
Tmp
°C
Dew
Point
°C
Rel
Hum
%
Delta-T

°C
Wind Press
QNH
hPa
Press
MSL
hPa
Rain
since
9 am
mm
Dir
 
Spd
km/h
Gust
km/h
Spd
kts
Gust
kts
23/11:30pm 0.6 -1.4 0.0 96 0.2 CALM 0 0 0 0 1022.1 - 0.0
23/11:00pm 0.0 -3.2 -0.4 97 0.1 E 6 7 3 4 1022.3 - 0.0
23/10:30pm 0.3 -2.1 -0.5 94 0.3 NNW 2 7 1 4 1022.6 - 0.0
23/10:00pm 1.2 -1.0 0.8 97 0.2 SE 2 7 1 4 1022.6 - 0.0
23/09:30pm 1.4 -0.5 0.8 96 0.2 CALM 0 0 0 0 1022.8 - 0.0
23/09:00pm 1.7 -0.1 1.1 96 0.2 CALM 0 0 0 0 1022.6 1024.0 0.0
23/08:30pm 2.3 0.6 1.6 95 0.3 CALM 0 0 0 0 1022.4 - 0.0
23/08:00pm 2.7 0.2 1.5 92 0.5 NNW 4 7 2 4 1022.4 - 0.0
23/07:30pm 3.5 0.7 2.0 90 0.6 N 6 7 3 4 1022.2 - 0.0
23/07:00pm 4.0 1.2 3.1 94 0.4 ESE 7 9 4 5 1022.1 - 0.0
23/06:30pm 2.7 -0.3 0.6 86 0.8 NE 6 7 3 4 1021.9 - 0.0
23/06:00pm 5.1 3.5 2.6 84 1.1 CALM 0 0 0 0 1021.7 1023.0 0.0
23/05:30pm 5.7 3.0 2.5 80 1.4 N 6 7 3 4 1021.6 - 0.0
23/05:00pm 7.2 4.0 2.9 74 1.9 NNE 9 11 5 6 1021.4 - 0.0
23/04:30pm 10.1 7.1 4.0 66 2.8 N 9 9 5 5 1021.4 - 0.0
23/04:00pm 10.7 7.2 3.7 62 3.2 N 11 15 6 8 1021.3 - 0.0
23/03:30pm 11.9 8.2 4.2 59 3.6 N 13 17 7 9 1021.3 - 0.0
23/03:00pm 12.2 8.2 4.9 61 3.4 N 15 19 8 10 1021.2 1022.5 0.0
23/02:30pm 13.1 9.8 4.8 57 4.0 NW 11 15 6 8 1021.2 - 0.0
23/02:00pm 12.5 9.3 3.2 53 4.3 NNE 9 15 5 8 1021.3 - 0.0
23/01:30pm 12.5 9.5 4.0 56 4.0 N 9 15 5 8 1021.6 - 0.0
23/01:00pm 12.6 9.9 5.8 63 3.3 NW 9 17 5 9 1022.0 - 0.0
23/12:30pm 12.1 9.4 5.7 65 3.1 NNW 9 15 5 8 1022.5 - 0.0
23/12:00pm 11.4 9.1 5.7 68 2.7 NW 7 11 4 6 1023.2 1024.5 0.0
23/11:30am 10.9 8.5 5.4 69 2.6 NNW 7 11 4 6 1023.8 - 0.0
23/11:00am 9.7 7.3 4.3 69 2.5 W 6 9 3 5 1024.5 - 0.0
23/10:30am 8.7 6.3 4.3 74 2.0 W 6 9 3 5 1025.0 - 0.0
23/10:00am 6.5 5.2 4.0 84 1.1 CALM 0 0 0 0 1025.2 - 0.0
23/09:30am 4.8 2.2 3.0 88 0.8 N 6 7 3 4 1025.4 - 0.0
23/09:00am 3.9 1.6 2.6 91 0.5 NW 4 7 2 4 1025.4 1026.8 0.0
23/08:30am 2.7 1.1 2.6 99 0.0 CALM 0 0 0 0 1025.1 - 0.0
23/08:15am 1.0 -0.8 0.9 99 0.0 CALM 0 - 0 - 1025.0 - 0.0
23/08:00am 0.1 -1.9 0.0 99 0.0 CALM 0 - 0 - 1024.8 - 0.0
23/07:30am -0.9 -3.4 -1.2 98 0.1 S 2 6 1 3 1024.5 - 0.0
23/07:08am -1.1 -3.7 -1.7 96 0.2 NE 2 7 1 4 1024.4 - 0.0
23/07:00am 0.1 -1.9 -0.2 98 0.1 CALM 0 0 0 0 1024.3 - 0.0
23/06:30am 0.9 -1.0 0.6 98 0.1 CALM 0 0 0 0 1024.2 - 0.0
23/06:00am 1.2 -0.6 1.1 99 0.0 CALM 0 0 0 0 1024.0 1025.4 0.0
23/05:30am 1.1 -0.7 1.0 99 0.0 CALM 0 0 0 0 1023.9 - 0.0
23/05:00am 1.2 -1.0 1.1 99 0.0 NE 2 6 1 3 1024.0 - 0.0
23/04:30am 0.5 -2.8 0.4 99 0.0 NE 7 9 4 5 1023.8 - 0.0
23/04:00am 0.4 -1.5 0.3 99 0.0 CALM 0 6 0 3 1023.7 - 0.0
23/03:30am 0.3 -2.0 0.2 99 0.0 E 2 6 1 3 1023.7 - 0.0
23/03:13am -0.1 -3.3 -0.2 99 0.0 SE 6 9 3 5 1023.7 - 0.0
23/03:02am -0.6 -2.7 -0.7 99 0.0 CALM 0 0 0 0 1023.7 - 0.0
23/03:00am -0.7 -2.8 -0.8 99 0.0 CALM 0 0 0 0 1023.7 1025.1 0.0
23/02:49am -0.2 -2.6 -0.3 99 0.0 S 2 6 1 3 1023.9 - 0.0
23/02:30am -0.6 -3.8 -0.7 99 0.0 SSE 6 7 3 4 1023.9 - 0.0
23/02:00am -0.6 -2.7 -0.9 98 0.1 CALM 0 0 0 0 1024.2 - 0.0
23/01:41am -0.1 -2.1 -0.2 99 0.0 CALM 0 0 0 0 1024.3 - 0.0
23/01:34am -0.3 -2.4 -0.6 98 0.1 CALM 0 0 0 0 1024.3 - 0.0
23/01:33am -0.3 -2.4 -0.6 98 0.1 CALM 0 0 0 0 1024.4 - 0.0
23/01:32am -0.4 -2.5 -0.7 98 0.1 CALM 0 0 0 0 1024.4 - 0.0
23/01:30am -0.5 -2.6 -0.8 98 0.1 CALM 0 0 0 0 1024.4 - 0.0
23/01:06am -0.6 -2.7 -1.0 97 0.1 CALM 0 0 0 0 1024.4 - 0.0
23/01:04am -0.4 -2.5 -0.7 98 0.1 CALM 0 0 0 0 1024.4 - 0.0
23/01:00am 0.0 -2.0 -0.3 98 0.1 CALM 0 0 0 0 1024.4 - 0.0
23/12:30am -0.1 -3.3 -0.4 98 0.1 NNE 6 7 3 4 1024.5 - 0.0
23/12:19am 0.5 -2.8 0.2 98 0.1 N 7 7 4 4 1024.6 - 0.0
23/12:00am -0.1 -2.2 -0.7 96 0.2 CALM 0 0 0 0 1024.8 1026.2 0.0
 
Date/Time
EST
Tmp

°C
App
Tmp
°C
Dew
Point
°C
Rel
Hum
%
Delta-T

°C
Wind Press
QNH
hPa
Press
MSL
hPa
Rain
since
9 am
mm
Dir
 
Spd
km/h
Gust
km/h
Spd
kts
Gust
kts
22/11:56pm -0.2 -2.3 -0.9 95 0.2 CALM 0 0 0 0 1024.8 - 0.0
22/11:30pm 0.5 -2.6 -0.1 96 0.2 SE 6 7 3 4 1024.9 - 0.0
22/11:00pm 2.2 -0.9 1.3 94 0.4 S 7 9 4 5 1024.8 - 0.0
22/10:30pm 3.8 1.1 3.5 98 0.1 SSE 7 9 4 5 1024.8 - 0.0
22/10:00pm 2.3 -1.1 1.7 96 0.2 SE 9 11 5 6 1024.8 - 0.0
22/09:30pm 2.1 -0.8 1.4 95 0.3 ESE 6 7 3 4 1024.5 - 0.0
22/09:00pm 2.0 0.1 0.8 92 0.5 CALM 0 0 0 0 1024.2 1025.6 0.0
22/08:30pm 2.9 1.2 2.0 94 0.4 CALM 0 0 0 0 1024.0 - 0.0
22/08:00pm 2.8 1.0 1.5 91 0.5 CALM 0 0 0 0 1023.9 - 0.0
22/07:30pm 4.1 2.3 3.4 95 0.3 ESE 2 7 1 4 1023.7 - 0.0
22/07:00pm 3.5 0.2 2.6 94 0.4 E 9 9 5 5 1023.6 - 0.0
22/06:30pm 3.5 1.0 1.4 86 0.8 NE 4 6 2 3 1023.5 - 0.0
22/06:00pm 4.2 1.1 1.2 81 1.2 N 7 7 4 4 1023.3 1024.7 0.0
22/05:30pm 6.2 3.2 2.3 76 1.7 E 7 9 4 5 1023.0 - 0.0
22/05:00pm 10.9 9.2 1.7 53 4.0 CALM 0 0 0 0 1022.6 - 0.0
22/04:30pm 12.6 9.6 2.2 49 4.7 W 7 9 4 5 1022.4 - 0.0
22/04:00pm 12.9 10.2 3.6 53 4.3 WNW 7 11 4 6 1022.3 - 0.0
22/03:30pm 13.3 10.5 3.1 50 4.7 SW 7 9 4 5 1022.3 - 0.0

Latest Capital City Observations: Canberra | Sydney | Melbourne | Brisbane | Adelaide | Perth | Hobart | Darwin

Other Formats:

Comma delimited format used in spreadsheet applications
http://www.bom.gov.au/fwo/IDN60903/IDN60903.94926.axf

JavaScript Object Notation format (JSON) in row-major order
http://www.bom.gov.au/fwo/IDN60903/IDN60903.94926.json